Time;durP1;ratioP1;P1;durP2;ratioP2;P2;SDS_P1;SDS_P2;PMS_P1;PMS_P2;Temp;Humidity;BMP_temperature;BMP_pressure;BME280_temperature;BME280_humidity;BME280_pressure;Samples;Min_cycle;Max_cycle;Signal;HPM_P1;HPM_P2
2022/06/25 00:01:29;;;;;;;7.30;6.10;;;;;;;22.37;70.83;100195.06;5016791;28;20550;-64
2022/06/25 00:03:57;;;;;;;7.68;6.15;;;;;;;22.35;71.42;100201.63;5005647;28;20045;-64
2022/06/25 00:06:24;;;;;;;10.93;5.78;;;;;;;22.32;71.73;100200.13;5000173;28;20061;-64
2022/06/25 00:08:53;;;;;;;7.15;5.45;;;;;;;22.32;71.50;100196.63;5009008;28;20053;-64
2022/06/25 00:14:09;;;;;;;6.93;5.60;;;;;;;22.29;72.83;100202.31;5003771;28;20084;-63
2022/06/25 00:16:37;;;;;;;6.85;5.75;;;;;;;22.27;73.01;100199.00;5018942;28;20064;-63
2022/06/25 00:19:05;;;;;;;8.48;6.07;;;;;;;22.27;73.25;100194.47;5009120;28;20100;-66
2022/06/25 00:21:33;;;;;;;8.40;6.30;;;;;;;22.22;73.96;100192.31;5008623;28;20049;-65
2022/06/25 00:24:00;;;;;;;8.10;6.80;;;;;;;22.18;74.29;100191.00;5004495;28;20054;-65
2022/06/25 00:26:27;;;;;;;9.77;6.72;;;;;;;22.17;74.81;100196.53;5001001;28;20061;-64
2022/06/25 00:28:55;;;;;;;13.93;7.57;;;;;;;22.15;75.47;100193.19;5004028;28;20053;-63
2022/06/25 00:31:22;;;;;;;9.10;7.68;;;;;;;22.09;76.41;100183.97;4983709;28;20062;-66
2022/06/25 00:33:49;;;;;;;13.40;9.90;;;;;;;22.03;77.64;100190.06;4991434;28;20049;-65
2022/06/25 00:36:17;;;;;;;12.38;9.93;;;;;;;21.98;79.08;100192.44;5002793;28;20392;-63
2022/06/25 00:38:44;;;;;;;12.73;10.43;;;;;;;21.92;78.85;100182.38;5004238;28;20057;-63
2022/06/25 00:41:12;;;;;;;13.27;11.23;;;;;;;21.89;78.61;100183.59;5001281;28;20124;-65
2022/06/25 00:43:40;;;;;;;16.27;11.60;;;;;;;21.86;78.22;100183.94;5004385;28;20064;-64
2022/06/25 00:46:07;;;;;;;18.55;13.75;;;;;;;21.84;79.32;100185.97;5004487;28;20057;-62
2022/06/25 00:48:34;;;;;;;19.65;14.73;;;;;;;21.77;79.80;100182.28;4999681;28;20176;-64
2022/06/25 00:51:12;;;;;;;20.52;16.15;;;;;;;21.72;80.10;100182.81;5000077;28;20101;-64
2022/06/25 00:53:42;;;;;;;22.33;17.40;;;;;;;21.67;80.17;100182.50;4991954;28;20080;-63
2022/06/25 00:56:11;;;;;;;22.10;19.25;;;;;;;21.64;81.16;100196.22;4999061;28;20064;-64
2022/06/25 00:58:41;;;;;;;23.88;20.05;;;;;;;21.59;81.31;100184.38;5013954;28;20104;-66
2022/06/25 01:01:10;;;;;;;24.65;21.45;;;;;;;21.54;83.08;100182.22;5001964;28;20171;-65
2022/06/25 01:03:37;;;;;;;27.15;21.55;;;;;;;21.51;83.73;100179.88;4994830;28;20137;-64
2022/06/25 01:06:05;;;;;;;25.92;22.75;;;;;;;21.49;83.98;100181.88;5001741;28;20065;-64
2022/06/25 01:08:34;;;;;;;25.48;21.20;;;;;;;21.44;84.18;100174.38;5005400;28;20041;-64
2022/06/25 01:11:02;;;;;;;26.15;19.92;;;;;;;21.37;84.16;100170.69;4999007;28;20046;-64
2022/06/25 01:13:30;;;;;;;28.55;22.02;;;;;;;21.37;84.65;100172.53;5012108;28;20054;-63
2022/06/25 01:15:57;;;;;;;25.50;21.02;;;;;;;21.36;84.48;100174.38;5002705;28;20053;-64
2022/06/25 01:18:25;;;;;;;21.95;19.40;;;;;;;21.35;83.83;100169.22;5011309;28;20395;-62
2022/06/25 01:20:52;;;;;;;25.60;20.33;;;;;;;21.33;83.52;100157.81;5003112;28;20652;-64
2022/06/25 01:23:19;;;;;;;22.45;20.05;;;;;;;21.30;84.57;100168.84;5008053;28;20106;-64
2022/06/25 01:25:47;;;;;;;24.42;20.00;;;;;;;21.25;84.77;100166.66;5009300;28;20106;-63
2022/06/25 01:28:14;;;;;;;21.25;18.90;;;;;;;21.19;85.44;100157.47;5012806;28;20436;-64
2022/06/25 01:30:41;;;;;;;22.45;19.02;;;;;;;21.16;85.90;100165.00;4987252;28;20410;-64
2022/06/25 01:33:09;;;;;;;21.10;18.90;;;;;;;21.13;87.51;100162.69;5005224;28;20054;-64
2022/06/25 01:35:37;;;;;;;22.23;17.90;;;;;;;21.09;88.97;100162.19;5000825;28;20058;-65
2022/06/25 01:38:04;;;;;;;19.70;16.08;;;;;;;21.03;88.30;100160.22;5004091;28;20041;-64
2022/06/25 01:40:32;;;;;;;18.98;16.70;;;;;;;21.03;90.06;100164.69;4997694;28;20045;-65
2022/06/25 01:43:01;;;;;;;19.33;15.43;;;;;;;20.97;89.53;100167.03;5006850;28;20057;-64
2022/06/25 01:45:34;;;;;;;19.98;15.88;;;;;;;20.95;90.22;100161.03;4981678;28;20425;-64
2022/06/25 01:48:04;;;;;;;20.38;15.77;;;;;;;20.91;90.60;100164.22;5000626;28;20054;-64
2022/06/25 01:50:32;;;;;;;20.23;16.02;;;;;;;20.88;89.98;100156.53;5001554;28;20057;-65
2022/06/25 01:52:59;;;;;;;18.35;15.02;;;;;;;20.87;90.55;100171.75;4992238;28;20562;-65
2022/06/25 01:55:27;;;;;;;19.05;16.90;;;;;;;20.86;90.83;100169.25;4985768;28;20054;-65
2022/06/25 01:57:55;;;;;;;19.77;15.32;;;;;;;20.84;89.93;100171.25;5003953;28;20057;-65
2022/06/25 02:00:25;;;;;;;19.60;16.42;;;;;;;20.82;90.94;100170.59;4984758;28;20049;-65
2022/06/25 02:02:54;;;;;;;18.88;15.52;;;;;;;20.78;90.32;100163.91;4996941;28;20053;-64
2022/06/25 02:08:11;;;;;;;19.13;16.63;;;;;;;20.68;92.44;100159.56;4999301;28;20065;-63
2022/06/25 02:10:38;;;;;;;21.85;15.00;;;;;;;20.66;92.66;100160.72;4997806;28;20046;-65
2022/06/25 02:13:06;;;;;;;16.65;14.50;;;;;;;20.64;93.03;100160.88;5006300;28;20516;-65
2022/06/25 02:15:33;;;;;;;17.27;14.25;;;;;;;20.61;93.02;100155.84;4980422;28;20121;-64
2022/06/25 02:18:00;;;;;;;16.58;14.25;;;;;;;20.58;92.77;100156.22;5002183;28;20083;-65
2022/06/25 02:20:27;;;;;;;20.75;15.25;;;;;;;20.57;92.83;100151.00;4997843;28;20065;-64
2022/06/25 02:22:55;;;;;;;21.50;14.10;;;;;;;20.52;93.19;100154.19;5003060;28;20050;-64
2022/06/25 02:25:22;;;;;;;20.35;15.10;;;;;;;20.45;94.07;100162.00;5001520;28;20046;-66
2022/06/25 02:27:49;;;;;;;16.15;14.40;;;;;;;20.40;93.74;100156.34;5003497;28;20052;-62
2022/06/25 02:30:17;;;;;;;16.10;13.55;;;;;;;20.37;93.27;100150.47;5013950;28;20546;-63
2022/06/25 02:32:44;;;;;;;15.23;13.07;;;;;;;20.35;93.26;100157.81;5006118;28;20056;-65
2022/06/25 02:35:11;;;;;;;17.10;13.35;;;;;;;20.32;92.82;100168.84;5006578;28;20054;-64
2022/06/25 02:37:38;;;;;;;17.52;13.73;;;;;;;20.32;92.95;100169.69;5005446;28;20078;-65
2022/06/25 02:40:06;;;;;;;17.10;13.38;;;;;;;20.33;92.86;100173.19;5001467;28;20057;-64
2022/06/25 02:42:37;;;;;;;16.92;13.75;;;;;;;20.34;92.08;100169.50;5008629;28;20513;-64
2022/06/25 02:45:05;;;;;;;17.92;12.85;;;;;;;20.36;91.30;100172.88;5019374;28;20495;-65
2022/06/25 02:47:33;;;;;;;15.18;11.65;;;;;;;20.36;91.44;100171.03;5010979;28;20050;-65
2022/06/25 02:50:01;;;;;;;14.95;13.45;;;;;;;20.37;91.86;100179.88;5008726;28;20064;-64
2022/06/25 02:52:28;;;;;;;16.67;13.73;;;;;;;20.36;92.99;100186.22;5009667;28;20061;-64
2022/06/25 02:54:55;;;;;;;17.95;15.00;;;;;;;20.36;92.75;100194.25;5003557;28;20647;-63
2022/06/25 03:00:09;;;;;;;15.40;13.38;;;;;;;20.34;92.79;100204.25;5005331;28;20060;-65
2022/06/25 03:02:37;;;;;;;15.73;12.93;;;;;;;20.35;92.64;100205.91;5008402;28;20156;-64
2022/06/25 03:05:04;;;;;;;17.02;13.82;;;;;;;20.35;92.85;100212.09;5005940;28;20110;-64
2022/06/25 03:07:32;;;;;;;21.02;14.65;;;;;;;20.37;93.70;100218.13;5012975;28;20042;-61
2022/06/25 03:09:59;;;;;;;18.30;14.35;;;;;;;20.38;93.22;100232.34;5002778;28;20046;-63
2022/06/25 03:12:26;;;;;;;19.20;14.23;;;;;;;20.37;94.20;100233.34;5012088;28;20694;-63
2022/06/25 03:14:53;;;;;;;14.70;13.05;;;;;;;20.38;93.87;100237.69;5013238;28;20050;-62
2022/06/25 03:17:21;;;;;;;18.08;14.13;;;;;;;20.39;93.42;100229.50;5012552;28;20046;-64
2022/06/25 03:19:48;;;;;;;18.42;13.07;;;;;;;20.45;92.68;100246.75;5008117;28;20042;-64
2022/06/25 03:22:15;;;;;;;19.42;13.18;;;;;;;20.50;92.61;100247.13;4998405;28;20054;-65
2022/06/25 03:24:43;;;;;;;15.88;13.98;;;;;;;20.54;92.67;100247.63;5017648;28;20049;-64
2022/06/25 03:27:10;;;;;;;16.95;13.48;;;;;;;20.53;92.74;100252.13;5010621;28;20457;-65
2022/06/25 03:29:37;;;;;;;13.30;11.95;;;;;;;20.55;93.96;100249.28;5006749;28;20068;-65
2022/06/25 03:32:05;;;;;;;15.73;12.50;;;;;;;20.54;93.73;100271.69;5008826;28;20046;-65
2022/06/25 03:34:32;;;;;;;14.70;12.57;;;;;;;20.55;94.16;100271.53;5009496;28;20064;-63
2022/06/25 03:36:59;;;;;;;14.68;13.13;;;;;;;20.58;94.27;100276.56;4986916;28;20045;-64
2022/06/25 03:39:26;;;;;;;14.23;12.38;;;;;;;20.60;93.73;100274.53;5005863;28;20065;-63
2022/06/25 03:41:54;;;;;;;15.45;12.27;;;;;;;20.66;93.67;100275.72;5010485;28;20046;-63
2022/06/25 03:44:21;;;;;;;14.25;12.85;;;;;;;20.70;93.52;100274.38;5009384;28;20060;-64
2022/06/25 03:46:48;;;;;;;14.60;13.15;;;;;;;20.73;93.77;100282.94;5002868;28;20076;-63
2022/06/25 03:49:16;;;;;;;18.20;13.73;;;;;;;20.76;94.58;100284.44;5002934;28;20098;-65
2022/06/25 03:51:43;;;;;;;18.63;14.02;;;;;;;20.81;93.96;100283.97;5007587;28;20053;-62
2022/06/25 03:54:10;;;;;;;14.63;12.65;;;;;;;20.88;93.76;100291.13;5004408;28;20543;-63
2022/06/25 03:56:37;;;;;;;16.15;14.50;;;;;;;20.94;93.19;100290.50;5004812;28;20045;-64
2022/06/25 03:59:04;;;;;;;16.95;14.73;;;;;;;20.97;93.78;100282.13;5009311;28;20052;-63
2022/06/25 04:01:32;;;;;;;18.63;16.73;;;;;;;21.00;94.06;100291.66;4998590;28;20455;-64
2022/06/25 04:03:59;;;;;;;16.88;14.73;;;;;;;21.06;93.73;100287.47;5007287;28;20058;-64
2022/06/25 04:06:27;;;;;;;18.45;15.88;;;;;;;21.11;93.31;100293.16;5004088;28;20056;-63
2022/06/25 04:08:54;;;;;;;18.10;14.52;;;;;;;21.18;92.86;100297.69;5008743;28;20052;-62
2022/06/25 04:11:22;;;;;;;19.00;14.98;;;;;;;21.24;92.56;100304.22;5006685;28;20054;-63
2022/06/25 04:13:49;;;;;;;17.00;15.20;;;;;;;21.32;92.63;100301.56;5006748;28;20050;-63
2022/06/25 04:16:16;;;;;;;17.50;15.70;;;;;;;21.37;93.39;100301.06;5005830;28;20145;-65
2022/06/25 04:18:44;;;;;;;19.35;17.48;;;;;;;21.43;92.80;100303.06;5009368;28;20053;-64
2022/06/25 04:21:11;;;;;;;18.05;16.23;;;;;;;21.54;92.73;100307.25;5003115;28;20385;-65
2022/06/25 04:23:38;;;;;;;17.00;15.35;;;;;;;21.60;92.20;100306.56;5000850;28;20053;-65
2022/06/25 04:26:05;;;;;;;16.30;14.77;;;;;;;21.66;91.43;100306.75;5002376;28;20520;-65
2022/06/25 04:31:19;;;;;;;19.35;17.33;;;;;;;21.68;92.08;100307.41;5001801;28;20623;-64
2022/06/25 04:33:46;;;;;;;17.75;15.63;;;;;;;21.69;92.29;100310.91;5019187;28;20052;-65
2022/06/25 04:36:13;;;;;;;18.38;15.52;;;;;;;21.70;91.82;100313.44;5029889;28;20069;-65
2022/06/25 04:38:40;;;;;;;20.67;15.40;;;;;;;21.71;91.89;100319.63;5001951;28;20439;-63
2022/06/25 04:41:08;;;;;;;20.27;16.42;;;;;;;21.72;91.56;100313.25;5003830;28;20042;-64
2022/06/25 04:43:35;;;;;;;16.85;14.70;;;;;;;21.73;91.49;100322.97;5007959;28;20073;-64
2022/06/25 04:46:03;;;;;;;18.52;14.73;;;;;;;21.73;91.18;100321.13;4998007;28;20057;-64
2022/06/25 04:48:30;;;;;;;15.98;14.38;;;;;;;21.78;90.98;100319.78;5012790;28;20050;-65
2022/06/25 04:50:57;;;;;;;14.88;13.05;;;;;;;21.83;90.55;100339.69;4999399;28;20535;-64
2022/06/25 04:53:24;;;;;;;15.45;13.82;;;;;;;21.82;90.29;100343.38;5006689;28;20050;-65
2022/06/25 04:55:52;;;;;;;15.07;13.45;;;;;;;21.86;89.81;100341.19;5003663;28;20101;-64
2022/06/25 04:58:19;;;;;;;15.65;13.48;;;;;;;21.92;89.62;100341.34;5000365;28;20042;-65
2022/06/25 05:00:46;;;;;;;15.55;13.80;;;;;;;22.02;89.03;100334.94;5000971;28;20054;-63
2022/06/25 05:03:14;;;;;;;14.07;12.68;;;;;;;22.09;87.94;100344.81;5017328;28;20049;-63
2022/06/25 05:05:41;;;;;;;17.55;14.73;;;;;;;22.19;87.33;100334.75;4992643;28;20562;-62
2022/06/25 05:08:08;;;;;;;18.17;14.65;;;;;;;22.23;86.56;100344.13;4995794;28;20627;-61
2022/06/25 05:10:36;;;;;;;16.10;14.50;;;;;;;22.32;85.97;100341.44;4993380;28;20053;-61
2022/06/25 05:13:12;;;;;;;20.02;14.68;;;;;;;22.28;85.56;100348.97;4998570;28;20064;-61
2022/06/25 05:15:40;;;;;;;16.52;13.90;;;;;;;22.38;85.26;100351.44;5004695;28;20046;-61
2022/06/25 05:18:08;;;;;;;20.05;13.98;;;;;;;22.52;84.90;100358.81;4999706;28;20634;-62
2022/06/25 05:20:40;;;;;;;15.43;13.82;;;;;;;22.66;84.39;100363.41;5008355;28;20046;-62
2022/06/25 05:23:07;;;;;;;16.35;14.45;;;;;;;22.70;83.32;100361.22;4998059;28;20050;-61
2022/06/25 05:25:35;;;;;;;16.25;14.55;;;;;;;22.72;82.89;100364.56;5004140;28;20052;-61
2022/06/25 05:28:03;;;;;;;19.42;13.63;;;;;;;22.79;82.64;100368.22;5006288;28;20101;-62
2022/06/25 05:30:31;;;;;;;17.65;14.82;;;;;;;22.91;82.00;100366.00;5010675;28;20045;-63
2022/06/25 05:32:58;;;;;;;16.13;13.77;;;;;;;22.95;81.93;100368.16;4994624;28;20056;-62
2022/06/25 05:35:26;;;;;;;18.85;14.35;;;;;;;23.06;81.38;100376.84;5010482;28;20073;-62
2022/06/25 05:37:54;;;;;;;15.68;13.27;;;;;;;23.09;80.62;100377.28;4998790;28;20057;-61
2022/06/25 05:40:21;;;;;;;15.70;13.55;;;;;;;23.19;79.88;100377.06;5001233;28;20108;-62
2022/06/25 05:42:48;;;;;;;15.45;13.75;;;;;;;23.24;79.44;100375.53;5013807;28;20054;-62
2022/06/25 05:45:16;;;;;;;13.75;12.35;;;;;;;23.36;78.81;100362.50;4997266;28;20057;-60
2022/06/25 05:47:43;;;;;;;17.63;12.93;;;;;;;23.37;77.48;100374.94;4998291;28;20054;-61
2022/06/25 05:50:10;;;;;;;15.77;13.23;;;;;;;23.37;77.91;100383.00;5014898;28;20113;-61
2022/06/25 05:52:38;;;;;;;13.98;12.30;;;;;;;23.40;77.41;100379.09;4999739;28;20065;-62
2022/06/25 05:55:06;;;;;;;13.10;11.85;;;;;;;23.42;77.11;100375.22;4998958;28;20144;-61
2022/06/25 05:57:33;;;;;;;17.35;13.38;;;;;;;23.35;76.69;100373.44;5007111;28;20119;-62
2022/06/25 06:00:04;;;;;;;14.82;13.25;;;;;;;23.30;77.23;100375.81;4999916;28;20050;-61
2022/06/25 06:02:32;;;;;;;17.17;13.02;;;;;;;23.31;77.15;100370.25;5000551;28;20133;-61
2022/06/25 06:05:02;;;;;;;14.20;12.27;;;;;;;23.50;76.83;100375.16;4999144;28;20054;-62
2022/06/25 06:07:30;;;;;;;14.80;12.30;;;;;;;23.70;76.07;100374.69;5005268;28;22056;-62
2022/06/25 06:09:58;;;;;;;15.85;14.20;;;;;;;23.81;75.30;100376.91;4995812;28;20064;-63
2022/06/25 06:12:25;;;;;;;15.05;13.23;;;;;;;23.92;74.86;100379.19;5013847;28;20077;-62
2022/06/25 06:14:52;;;;;;;14.57;12.63;;;;;;;24.07;74.59;100371.13;5010534;28;20145;-62
2022/06/25 06:17:20;;;;;;;15.32;11.52;;;;;;;24.18;74.11;100377.88;5008645;28;20231;-62
2022/06/25 06:19:48;;;;;;;14.05;12.60;;;;;;;24.23;73.62;100384.41;4995842;28;20049;-62
2022/06/25 06:22:16;;;;;;;17.13;14.05;;;;;;;24.34;73.16;100387.66;4995154;28;20057;-62
2022/06/25 06:24:44;;;;;;;15.68;13.57;;;;;;;24.38;72.41;100389.81;4977884;28;20054;-62
2022/06/25 06:27:13;;;;;;;13.85;12.45;;;;;;;24.33;72.25;100389.50;4989724;28;20496;-63
2022/06/25 06:29:40;;;;;;;15.15;13.45;;;;;;;24.30;72.82;100392.56;4994234;28;20125;-64
2022/06/25 06:32:08;;;;;;;14.43;13.00;;;;;;;24.29;72.86;100384.69;4992665;28;20058;-62
2022/06/25 06:34:36;;;;;;;13.90;12.60;;;;;;;24.32;72.90;100390.53;5004803;28;20456;-62
2022/06/25 06:37:03;;;;;;;18.00;13.90;;;;;;;24.37;72.37;100390.84;4995378;28;20520;-65
2022/06/25 06:39:31;;;;;;;15.32;12.90;;;;;;;24.49;72.13;100396.56;4993430;28;20045;-70
2022/06/25 06:41:58;;;;;;;20.17;13.23;;;;;;;24.56;72.11;100396.69;5011679;28;20619;-67
2022/06/25 06:44:25;;;;;;;15.90;12.98;;;;;;;24.64;71.83;100405.47;4981744;28;20092;-67
2022/06/25 06:46:52;;;;;;;17.35;15.25;;;;;;;24.76;71.86;100406.66;4976028;28;21021;-68
2022/06/25 06:49:20;;;;;;;22.00;15.27;;;;;;;24.81;71.13;100405.25;4984438;28;20332;-68
2022/06/25 06:51:47;;;;;;;18.38;15.80;;;;;;;24.93;71.36;100415.34;4998599;28;20045;-66
2022/06/25 06:54:15;;;;;;;17.83;16.15;;;;;;;24.93;71.25;100415.34;4999987;28;20046;-66
2022/06/25 06:56:42;;;;;;;30.95;15.18;;;;;;;24.99;71.21;100417.31;4997358;28;20049;-66
2022/06/25 06:59:09;;;;;;;17.42;15.65;;;;;;;25.05;70.67;100417.56;4968983;28;20058;-66
2022/06/25 07:01:37;;;;;;;17.58;15.77;;;;;;;25.03;70.66;100417.75;4982798;28;20046;-66
2022/06/25 07:04:04;;;;;;;16.58;14.93;;;;;;;25.11;70.35;100420.38;4989767;28;20044;-67
2022/06/25 07:06:31;;;;;;;17.50;15.70;;;;;;;25.22;69.62;100417.19;4976551;28;20172;-65
2022/06/25 07:08:58;;;;;;;19.52;17.48;;;;;;;25.19;69.15;100414.88;5007515;28;20084;-66
2022/06/25 07:11:28;;;;;;;16.95;13.93;;;;;;;25.25;69.12;100416.78;4998338;28;20046;-66
2022/06/25 07:14:01;;;;;;;16.63;14.93;;;;;;;25.32;69.13;100416.03;5006879;28;20439;-66
2022/06/25 07:16:29;;;;;;;16.17;14.50;;;;;;;25.41;68.90;100414.88;5006041;28;20061;-66
2022/06/25 07:18:59;;;;;;;15.45;13.73;;;;;;;25.48;68.46;100410.38;4994628;28;20049;-66
2022/06/25 07:21:27;;;;;;;17.75;14.48;;;;;;;25.44;67.76;100417.19;4992264;28;20038;-66
2022/06/25 07:23:54;;;;;;;17.10;13.98;;;;;;;25.61;67.54;100407.81;5002136;28;20049;-65
2022/06/25 07:26:24;;;;;;;16.90;14.95;;;;;;;25.68;67.62;100411.41;5007446;28;20046;-66
2022/06/25 07:28:53;;;;;;;26.67;19.73;;;;;;;25.80;67.48;100406.34;5013454;28;20079;-66
2022/06/25 07:31:21;;;;;;;19.15;15.60;;;;;;;25.95;66.55;100414.34;5008173;28;20046;-66
2022/06/25 07:33:49;;;;;;;15.50;13.80;;;;;;;25.97;65.81;100405.03;5008997;28;20557;-67
2022/06/25 07:36:16;;;;;;;16.45;13.70;;;;;;;26.09;65.45;100409.88;5009254;28;20058;-67
2022/06/25 07:38:43;;;;;;;14.30;12.80;;;;;;;26.20;65.69;100402.06;5011299;28;20136;-66
2022/06/25 07:41:10;;;;;;;17.58;13.70;;;;;;;26.39;64.80;100400.53;5006938;28;20142;-67
2022/06/25 07:43:38;;;;;;;14.85;13.35;;;;;;;26.57;63.89;100399.19;5009666;28;20077;-67
2022/06/25 07:46:05;;;;;;;14.82;13.25;;;;;;;26.57;62.83;100385.69;5004056;28;20074;-67
2022/06/25 07:48:32;;;;;;;20.98;13.30;;;;;;;26.77;62.85;100397.41;5008544;28;20050;-64
2022/06/25 07:53:45;;;;;;;14.02;12.07;;;;;;;27.08;61.72;100399.59;5015087;28;20049;-64
2022/06/25 07:56:13;;;;;;;14.82;13.10;;;;;;;27.23;61.28;100403.00;4994512;28;20129;-64
2022/06/25 07:58:40;;;;;;;12.80;11.50;;;;;;;27.52;60.08;100406.38;5005293;28;20045;-65
2022/06/25 08:01:08;;;;;;;14.82;13.25;;;;;;;27.59;58.38;100401.78;4993099;28;20049;-65
2022/06/25 08:03:35;;;;;;;14.13;12.55;;;;;;;27.78;58.68;100405.56;5008525;28;20060;-64
2022/06/25 08:06:02;;;;;;;12.55;11.25;;;;;;;27.97;57.01;100402.03;5009000;28;20821;-64
2022/06/25 08:08:29;;;;;;;15.65;11.10;;;;;;;28.16;56.98;100404.94;5003264;28;20058;-65
2022/06/25 08:10:57;;;;;;;11.68;10.15;;;;;;;28.40;56.03;100401.56;4998834;28;20149;-65
2022/06/25 08:13:25;;;;;;;12.45;10.00;;;;;;;28.46;54.64;100408.00;5001813;28;20049;-66
2022/06/25 08:15:53;;;;;;;14.30;8.38;;;;;;;28.41;54.00;100408.63;5010035;28;20068;-67
2022/06/25 08:18:20;;;;;;;9.57;8.68;;;;;;;28.30;53.71;100405.75;5013955;28;20130;-67
2022/06/25 08:20:48;;;;;;;14.45;10.30;;;;;;;28.30;53.92;100411.97;5007600;28;20061;-66
2022/06/25 08:23:16;;;;;;;11.30;8.75;;;;;;;28.48;52.27;100414.06;5005147;28;20050;-65
2022/06/25 08:25:43;;;;;;;8.88;7.97;;;;;;;28.57;51.88;100420.06;5023672;28;20061;-66
2022/06/25 08:28:11;;;;;;;9.32;8.30;;;;;;;28.63;51.50;100420.03;5008673;28;20138;-71
2022/06/25 08:30:41;;;;;;;13.77;10.32;;;;;;;28.57;51.60;100415.47;5001404;28;20733;-67
2022/06/25 08:33:09;;;;;;;10.85;8.55;;;;;;;28.67;51.89;100415.03;5002453;28;20731;-66
2022/06/25 08:35:36;;;;;;;10.60;9.52;;;;;;;28.76;51.74;100416.44;5009197;28;20516;-66
2022/06/25 08:38:04;;;;;;;10.00;9.00;;;;;;;28.85;51.64;100419.75;5002527;28;20057;-67
2022/06/25 08:40:32;;;;;;;10.25;8.73;;;;;;;29.03;51.31;100422.59;5005258;28;20133;-67
2022/06/25 08:43:00;;;;;;;10.88;9.43;;;;;;;29.32;50.69;100413.06;5006963;28;20042;-67
2022/06/25 08:45:27;;;;;;;10.25;9.18;;;;;;;29.22;50.05;100424.38;5004196;28;20061;-65
2022/06/25 08:47:57;;;;;;;10.07;8.23;;;;;;;29.45;50.32;100421.13;5016834;28;20049;-71
2022/06/25 08:50:31;;;;;;;9.60;8.70;;;;;;;29.75;49.07;100431.34;5004821;28;20354;-66
2022/06/25 08:52:59;;;;;;;9.48;8.20;;;;;;;29.82;48.64;100431.31;4994994;28;20057;-66
2022/06/25 08:55:33;;;;;;;11.13;8.43;;;;;;;29.96;48.57;100433.69;4993296;28;20053;-67
2022/06/25 08:58:01;;;;;;;9.25;8.35;;;;;;;30.12;48.05;100432.28;5003758;28;20141;-66
2022/06/25 09:00:29;;;;;;;8.85;7.85;;;;;;;30.07;47.26;100434.00;4995755;28;20042;-66
2022/06/25 09:02:59;;;;;;;9.38;8.48;;;;;;;29.57;47.42;100432.13;5001094;28;20491;-65
2022/06/25 09:05:29;;;;;;;10.95;7.55;;;;;;;29.31;48.99;100426.81;5012748;28;20112;-61
2022/06/25 09:08:01;;;;;;;8.55;7.68;;;;;;;29.23;49.33;100428.75;4994395;28;20136;-66
2022/06/25 09:10:29;;;;;;;9.50;8.02;;;;;;;29.33;49.33;100427.47;5005582;28;20288;-65
2022/06/25 09:12:59;;;;;;;9.48;8.15;;;;;;;29.50;48.45;100428.59;4992189;28;20077;-65
2022/06/25 09:15:33;;;;;;;7.10;6.50;;;;;;;29.51;48.67;100430.25;5005637;28;20054;-65
2022/06/25 09:18:14;;;;;;;8.02;7.22;;;;;;;29.61;48.17;100427.09;5003696;28;20080;-64
2022/06/25 09:21:04;;;;;;;8.45;7.65;;;;;;;29.75;47.71;100428.63;5000062;28;20069;-64
2022/06/25 09:23:33;;;;;;;8.77;7.55;;;;;;;29.76;47.50;100433.00;5009042;28;20064;-64
2022/06/25 09:26:08;;;;;;;11.60;8.35;;;;;;;29.90;47.53;100423.72;5000671;28;20047;-64
2022/06/25 09:28:41;;;;;;;10.75;7.82;;;;;;;29.90;46.84;100428.31;5007869;28;20048;-64
2022/06/25 09:31:08;;;;;;;7.63;6.85;;;;;;;29.96;47.23;100430.97;5006809;28;20064;-64
2022/06/25 09:33:37;;;;;;;11.20;8.25;;;;;;;30.12;47.07;100428.72;5019646;28;20208;-65
2022/06/25 09:36:08;;;;;;;9.07;7.78;;;;;;;30.20;46.15;100434.75;5011327;28;20129;-64
2022/06/25 09:38:49;;;;;;;7.78;7.13;;;;;;;30.27;46.05;100432.78;5006221;28;20477;-65
2022/06/25 09:41:16;;;;;;;8.02;7.32;;;;;;;30.25;45.91;100434.88;5001986;28;20054;-63
2022/06/25 09:43:47;;;;;;;11.43;7.70;;;;;;;30.39;45.90;100427.44;5015335;28;20160;-63
2022/06/25 09:46:15;;;;;;;7.88;7.28;;;;;;;30.30;46.00;100433.38;5009561;28;20111;-64
2022/06/25 09:48:43;;;;;;;9.40;6.85;;;;;;;30.29;45.93;100431.75;5008552;28;20054;-64
2022/06/25 09:51:20;;;;;;;11.07;6.68;;;;;;;30.17;46.13;100432.50;4985504;28;20085;-63
2022/06/25 09:53:48;;;;;;;10.40;8.65;;;;;;;30.11;46.03;100438.75;5007488;28;20060;-63
2022/06/25 09:56:22;;;;;;;9.38;7.05;;;;;;;30.04;46.21;100443.44;4970595;28;20058;-64
2022/06/25 09:58:50;;;;;;;9.57;6.55;;;;;;;30.17;46.14;100442.50;4992711;28;20528;-64
2022/06/25 10:01:20;;;;;;;8.05;7.25;;;;;;;30.16;46.07;100441.66;5012434;28;20057;-64
2022/06/25 10:03:48;;;;;;;8.18;7.38;;;;;;;30.04;46.26;100451.59;5006356;28;20065;-64
2022/06/25 10:06:19;;;;;;;8.60;6.93;;;;;;;30.03;46.65;100447.19;5004046;28;20555;-63
2022/06/25 10:08:52;;;;;;;7.97;5.78;;;;;;;30.16;46.24;100443.56;5007977;28;20045;-64
2022/06/25 10:11:21;;;;;;;8.40;5.50;;;;;;;30.29;45.93;100445.31;4992868;28;20607;-64
2022/06/25 10:13:50;;;;;;;7.57;6.78;;;;;;;30.31;45.18;100443.22;5007436;28;20053;-64
2022/06/25 10:16:23;;;;;;;7.03;5.55;;;;;;;30.12;45.80;100437.69;5006698;28;20064;-64
2022/06/25 10:18:51;;;;;;;6.15;5.60;;;;;;;30.16;45.91;100444.38;4968321;28;20612;-64
2022/06/25 10:21:20;;;;;;;5.88;5.25;;;;;;;30.43;45.28;100431.38;5007169;28;20057;-64
2022/06/25 10:23:52;;;;;;;6.60;5.60;;;;;;;30.38;45.08;100438.53;5004663;28;20062;-64
2022/06/25 10:26:20;;;;;;;6.05;5.07;;;;;;;30.40;45.07;100434.56;4990984;28;20053;-64
2022/06/25 10:28:48;;;;;;;5.60;5.10;;;;;;;30.36;45.16;100446.09;5010330;28;20087;-64
2022/06/25 10:31:17;;;;;;;7.22;5.70;;;;;;;30.20;44.94;100442.88;4993569;28;20047;-64
2022/06/25 10:33:54;;;;;;;5.75;5.07;;;;;;;30.25;44.87;100445.75;5008263;28;20042;-65
2022/06/25 10:36:48;;;;;;;5.47;4.32;;;;;;;30.30;44.38;100431.50;4996895;28;20052;-65
2022/06/25 10:39:27;;;;;;;9.55;4.95;;;;;;;30.29;43.54;100429.84;4989865;28;20094;-65
2022/06/25 10:45:15;;;;;;;8.50;5.18;;;;;;;30.48;42.85;100428.78;5001816;28;20536;-65
2022/06/25 10:47:46;;;;;;;6.25;4.72;;;;;;;30.35;43.10;100417.25;5001456;28;20149;-64
2022/06/25 10:50:35;;;;;;;5.68;4.45;;;;;;;30.67;42.62;100426.94;5002782;28;20065;-65
2022/06/25 10:53:05;;;;;;;5.30;4.25;;;;;;;30.92;42.28;100432.28;5013616;28;20060;-64
2022/06/25 10:55:37;;;;;;;7.53;4.82;;;;;;;31.00;41.88;100431.97;5016973;28;20068;-63
2022/06/25 10:58:11;;;;;;;5.90;5.15;;;;;;;30.87;42.58;100424.00;5012984;28;20069;-63
2022/06/25 11:00:49;;;;;;;5.32;4.88;;;;;;;30.83;42.42;100428.22;5009193;28;20058;-65
2022/06/25 11:03:37;;;;;;;6.05;4.40;;;;;;;30.87;42.27;100431.31;4999180;28;20438;-63
2022/06/25 11:06:29;;;;;;;6.03;4.97;;;;;;;30.79;42.66;100434.34;5002201;28;20586;-63
2022/06/25 11:09:06;;;;;;;8.60;5.30;;;;;;;30.68;43.38;100425.03;5011567;28;20333;-64
2022/06/25 11:11:34;;;;;;;6.50;5.80;;;;;;;30.58;43.34;100439.16;5010104;28;20054;-64
2022/06/25 11:14:03;;;;;;;8.93;5.60;;;;;;;30.49;43.52;100430.47;5013587;28;20608;-64
2022/06/25 11:16:30;;;;;;;8.88;5.20;;;;;;;30.47;43.66;100434.47;4987623;28;20042;-63
2022/06/25 11:18:59;;;;;;;8.65;5.88;;;;;;;30.37;43.95;100435.00;5008859;28;20050;-64
2022/06/25 11:21:40;;;;;;;7.25;5.93;;;;;;;30.28;44.50;100439.06;5007316;28;20049;-63
2022/06/25 11:24:14;;;;;;;6.85;5.43;;;;;;;30.15;44.36;100436.47;5007106;28;20144;-65
2022/06/25 11:29:34;;;;;;;6.60;5.55;;;;;;;30.19;44.74;100430.38;5008506;28;20121;-65
2022/06/25 11:32:01;;;;;;;6.93;6.20;;;;;;;30.21;44.31;100436.38;4991736;28;20400;-63
2022/06/25 11:34:31;;;;;;;7.25;4.97;;;;;;;30.28;44.11;100436.34;5007990;28;20061;-64
2022/06/25 11:37:07;;;;;;;7.90;6.25;;;;;;;30.33;43.72;100430.25;5005441;28;20559;-64
2022/06/25 11:39:35;;;;;;;6.07;5.30;;;;;;;30.50;43.38;100428.59;5004575;28;20078;-64
2022/06/25 11:42:07;;;;;;;6.82;5.43;;;;;;;30.41;43.57;100432.66;5007923;28;20056;-66